Bridge of Allan, United Kingdom
Current Conditions -  °F | °C
As of 12:50 PM on Friday 19 Dec 2014 (Local Time) from EGPH Reporting Station
Rain Showers Rain Showers  
Wind Chill: 32°   Ceiling: Unl
Heat Index: 41°   Visibility: 6mi
Dew Point: 36°   Wind: 17mph
Humidity: 81%   Direction: 260°W
Pressure: 29.65"   Gusts: NA
Location:  56.15°N, 3.95°W
Report Text: EGPH 191250Z 26015KT 220V300 9999 -SHRA FEW014 SCT025 05/02 Q1004
Loading
Personal Weather Stations






























Interactive Weather Map New forecast layout! Learn more

10-Day Weather Forecast

Advertisements
Track Severe Weather on mobile